Nippon Maru — 3FDA7 — position and weather

sailwx.info

Track history (hours):
 
Tides and Currents Weather Stations Pressure Air Temp Water Temp Dewpoint Dewpoint Depression Visibility Wind Speed Wind Dir Waves Ship Positions

Nippon Maru

Last reported at 2017-Jul-12 14:33 UTC. Time now 2017-Aug-17 21:27 UTC.
Position N 37°42' W 127°00'.
Warning: this ship's position is 36 days out of date.

Length 190 m; draft 11.9 m.

Type: Cargo ship. MMSI: 353814000.

Date/timePositionNaut miles runAvg speedWind from/ knotsBaromVisibWave heightAir tempDewpointWater temp
2017-Jul-12 14:33N 37°42' W 127°00'1010.7
2017-Jul-12 13:34N 37°42' W 126°47'310.6
2017-Jul-12 13:15N 37°42' W 126°43'410.7
2017-Jul-12 12:54N 37°42' W 126°38'410.5
2017-Jul-12 12:31N 37°42' W 126°33'610.7
2017-Jul-12 11:56N 37°42' W 126°25'3110.5
2017-Jul-12 09:00N 37°43' W 125°46'17 9.9
2017-Jul-12 07:16N 37°42' W 125°24'310.2
2017-Jul-12 06:57N 37°42' W 125°20'8 9.9
2017-Jul-12 06:10N 37°42' W 125°10'210.2
2017-Jul-12 06:00N 37°42' W 125°08'510.2
2017-Jul-12 05:30N 37°42' W 125°02'510.1
2017-Jul-12 05:00N 37°41' W 124°56'510.0
2017-Jul-12 04:30N 37°40' W 124°49'510.1
2017-Jul-12 04:01N 37°40' W 124°43'510.0
2017-Jul-12 03:30N 37°39' W 124°37'1010.3
2017-Jul-12 02:30N 37°38' W 124°24'810.4
2017-Jul-12 01:44N 37°37' W 124°14'310.5
2017-Jul-12 01:24N 37°36' W 124°09'410.4
2017-Jul-12 01:00N 37°36' W 124°04'510.5
2017-Jul-12 00:31N 37°35' W 123°58'510.3
2017-Jul-12 00:00N 37°35' W 123°51'510.4
2017-Jul-11 23:31N 37°34' W 123°45'510.7
2017-Jul-11 23:01N 37°33' W 123°38'510.6
2017-Jul-11 22:31N 37°33' W 123°32'510.8
2017-Jul-11 22:00N 37°32' W 123°25'510.9
2017-Jul-11 21:30N 37°31' W 123°18'5 9.8
2017-Jul-11 21:01N 37°30' W 123°12'510.3
2017-Jul-11 20:31N 37°33' W 123°07'510.7
2017-Jul-11 20:01N 37°36' W 123°01'611.0
2017-Jul-11 19:31N 37°39' W 122°55'510.9
2017-Jul-11 19:01N 37°42' W 122°50'510.8
2017-Jul-11 18:31N 37°44' W 122°43'4 8.2
2017-Jul-11 18:01N 37°46' W 122°39'510.3
2017-Jul-11 17:31N 37°48' W 122°33'510.5
2017-Jul-11 17:01N 37°50' W 122°27'4 8.5
2017-Jul-11 16:31N 37°48' W 122°23'2 4.9
2017-Jul-11 16:01N 37°46' W 122°21'0 0.3
2017-Jul-11 15:30N 37°46' W 122°21'0 0.0
2017-Jul-11 15:00N 37°46' W 122°21'0 0.0
2017-Jul-11 14:30N 37°46' W 122°21'0 0.0
2017-Jul-11 14:00N 37°46' W 122°21'0 0.0
2017-Jul-11 13:30N 37°46' W 122°21'0 0.0
2017-Jul-11 13:00N 37°46' W 122°21'0 0.0
2017-Jul-11 12:30N 37°46' W 122°21'0 0.0
2017-Jul-11 12:00N 37°46' W 122°21'0 0.0
2017-Jul-11 11:30N 37°46' W 122°21'0 0.0
2017-Jul-11 11:00N 37°46' W 122°21'0 0.0
2017-Jul-11 10:30N 37°46' W 122°21'0 0.1
2017-Jul-11 10:00N 37°46' W 122°21'0 0.9
2017-Jul-11 09:31N 37°46' W 122°21'3 6.4
2017-Jul-11 09:01N 37°49' W 122°23'4 8.8
2017-Jul-11 08:30N 37°53' W 122°25'2 3.4
2017-Jul-11 08:01N 37°55' W 122°24'2 3.8
2017-Jul-11 07:30N 37°55' W 122°22'0 0.9
2017-Jul-11 07:00N 37°55' W 122°22'0 0.0
2017-Jul-11 06:30N 37°55' W 122°22'0 0.0
2017-Jul-11 06:00N 37°55' W 122°22'0 0.0
2017-Jul-11 05:30N 37°55' W 122°22'0 0.0
2017-Jul-11 04:57N 37°55' W 122°22'0 0.0
2017-Jul-11 04:27N 37°55' W 122°22'0 0.0
2017-Jul-11 04:00N 37°55' W 122°22'0 0.0
2017-Jul-11 03:30N 37°55' W 122°22'0 0.0
2017-Jul-11 03:00N 37°55' W 122°22'0 0.0
2017-Jul-11 02:30N 37°55' W 122°22'0 0.0
2017-Jul-11 02:00N 37°55' W 122°22'0 0.0
2017-Jul-11 01:30N 37°55' W 122°22'0 0.0
2017-Jul-11 01:00N 37°55' W 122°22'0 0.0
2017-Jul-11 00:30N 37°55' W 122°22'0 0.0
2017-Jul-11 00:00N 37°55' W 122°22'0 0.0
2017-Jul-10 23:30N 37°55' W 122°22'0 0.0
2017-Jul-10 22:57N 37°55' W 122°22'0 0.0
2017-Jul-10 22:30N 37°55' W 122°22'0 0.0
2017-Jul-10 22:00N 37°55' W 122°22'0 0.0
2017-Jul-10 21:27N 37°55' W 122°22'0 0.0
2017-Jul-10 21:00N 37°55' W 122°22'0 0.0
2017-Jul-10 20:30N 37°55' W 122°22'0 0.0
2017-Jul-10 20:00N 37°55' W 122°22'0 0.0
2017-Jul-10 19:30N 37°55' W 122°22'0 0.0
2017-Jul-10 19:00N 37°55' W 122°22'0 0.0
2017-Jul-10 18:30N 37°55' W 122°22'0 0.0
2017-Jul-10 18:00N 37°55' W 122°22'0 0.0
2017-Jul-10 17:30N 37°55' W 122°22'0 0.0
2017-Jul-10 17:00N 37°55' W 122°22'0 0.0
2017-Jul-10 16:30N 37°55' W 122°22'0 0.0
2017-Jul-10 16:00N 37°55' W 122°22'0 0.0
2017-Jul-10 15:30N 37°55' W 122°22'0 0.0
2017-Jul-10 15:00N 37°55' W 122°22'0 0.0
2017-Jul-10 14:30N 37°55' W 122°22'0 0.0
2017-Jul-10 13:57N 37°55' W 122°22'0 0.0
2017-Jul-10 13:30N 37°55' W 122°22'0 0.0
2017-Jul-10 12:57N 37°55' W 122°22'0 0.0
2017-Jul-10 12:30N 37°55' W 122°22'0 0.0
2017-Jul-10 12:00N 37°55' W 122°22'0 0.0
2017-Jul-10 11:30N 37°55' W 122°22'0 0.0
2017-Jul-10 11:00N 37°55' W 122°22'0 0.0
2017-Jul-10 10:30N 37°55' W 122°22'0 0.0
2017-Jul-10 10:00N 37°55' W 122°22'0 0.0
2017-Jul-10 09:30N 37°55' W 122°22'0 0.0
2017-Jul-10 09:00N 37°55' W 122°22'0 0.0
2017-Jul-10 08:30N 37°55' W 122°22'0 0.0
2017-Jul-10 08:00N 37°55' W 122°22'0 0.0
2017-Jul-10 07:27N 37°55' W 122°22'0 0.0
2017-Jul-10 06:57N 37°55' W 122°22'0 0.0
2017-Jul-10 06:27N 37°55' W 122°22'0 0.0
2017-Jul-10 05:57N 37°55' W 122°22'0 0.0
2017-Jul-10 05:30N 37°55' W 122°22'0 0.0
2017-Jul-10 05:00N 37°55' W 122°22'0 0.0
2017-Jul-10 04:30N 37°55' W 122°22'0 0.0
2017-Jul-10 04:00N 37°55' W 122°22'0 0.0
2017-Jul-10 03:30N 37°55' W 122°22'0 0.0
2017-Jul-10 02:57N 37°55' W 122°22'0 0.0
2017-Jul-10 02:30N 37°55' W 122°22'0 0.0
2017-Jul-10 02:00N 37°55' W 122°22'0 0.0
2017-Jul-10 01:30N 37°55' W 122°22'0 0.0
2017-Jul-10 01:00N 37°55' W 122°22'0 0.0
2017-Jul-10 00:30N 37°55' W 122°22'0 0.0
2017-Jul-10 00:00N 37°55' W 122°22'0 0.0
2017-Jul-09 23:30N 37°55' W 122°22'0 0.0
2017-Jul-09 23:00N 37°55' W 122°22'0 0.0
2017-Jul-09 22:30N 37°55' W 122°22'0 0.0
2017-Jul-09 22:00N 37°55' W 122°22'0 0.0
2017-Jul-09 21:27N 37°55' W 122°22'0 0.0
2017-Jul-09 21:00N 37°55' W 122°22'0 0.0
2017-Jul-09 20:27N 37°55' W 122°22'0 0.0
2017-Jul-09 20:00N 37°55' W 122°22'0 0.0
2017-Jul-09 19:30N 37°55' W 122°22'0 0.0
2017-Jul-09 19:00N 37°55' W 122°22'0 0.0
2017-Jul-09 18:27N 37°55' W 122°22'0 0.0
2017-Jul-09 18:00N 37°55' W 122°22'0 0.0
2017-Jul-09 17:30N 37°55' W 122°22'0 0.0
2017-Jul-09 17:00N 37°55' W 122°22'0 0.0
2017-Jul-09 16:30N 37°55' W 122°22'0 0.0
2017-Jul-09 16:00N 37°55' W 122°22'0 0.0
2017-Jul-09 15:30N 37°55' W 122°22'0 0.0
2017-Jul-09 15:00N 37°55' W 122°22'0 0.0
2017-Jul-09 14:27N 37°55' W 122°22'0 0.0
2017-Jul-09 14:00N 37°55' W 122°22'0 0.0
2017-Jul-09 13:30N 37°55' W 122°22'0 0.0
2017-Jul-09 12:57N 37°55' W 122°22'0 0.0
2017-Jul-09 12:30N 37°55' W 122°22'0 0.0
2017-Jul-09 12:00N 37°55' W 122°22'0 0.0
2017-Jul-09 11:30N 37°55' W 122°22'0 0.0
2017-Jul-09 11:00N 37°55' W 122°22'0 0.0
2017-Jul-09 10:30N 37°55' W 122°22'0 0.0
2017-Jul-09 10:00N 37°55' W 122°22'0 0.0
2017-Jul-09 09:30N 37°55' W 122°22'0 0.0
2017-Jul-09 09:00N 37°55' W 122°22'0 0.0
2017-Jul-09 08:30N 37°55' W 122°22'0 0.0
2017-Jul-09 08:00N 37°55' W 122°22'0 0.0
2017-Jul-09 07:30N 37°55' W 122°22'0 0.0
2017-Jul-09 07:00N 37°55' W 122°22'0 0.0
2017-Jul-09 06:30N 37°55' W 122°22'0 0.0
2017-Jul-09 06:00N 37°55' W 122°22'0 0.0
2017-Jul-09 05:27N 37°55' W 122°22'0 0.0
2017-Jul-09 05:00N 37°55' W 122°22'0 0.0
2017-Jul-09 04:30N 37°55' W 122°22'0 0.0
2017-Jul-09 04:00N 37°55' W 122°22'0 0.0
2017-Jul-09 03:30N 37°55' W 122°22'0 0.0
2017-Jul-09 03:00N 37°55' W 122°22'0 0.0
2017-Jul-09 02:30N 37°55' W 122°22'0 0.0
2017-Jul-09 02:00N 37°55' W 122°22'0 0.0
2017-Jul-09 01:30N 37°55' W 122°22'0 0.0
2017-Jul-09 01:00N 37°55' W 122°22'0 0.0
2017-Jul-09 00:30N 37°55' W 122°22'0 0.0
2017-Jul-09 00:00N 37°55' W 122°22'0 0.0
2017-Jul-08 23:30N 37°55' W 122°22'0 0.0
2017-Jul-08 23:00N 37°55' W 122°22'0 0.0
2017-Jul-08 22:30N 37°55' W 122°22'0 0.0
2017-Jul-08 22:00N 37°55' W 122°22'0 0.0
2017-Jul-08 21:30N 37°55' W 122°22'0 0.0
2017-Jul-08 21:00N 37°55' W 122°22'0 0.0
2017-Jul-08 20:30N 37°55' W 122°22'0 0.0
2017-Jul-08 20:00N 37°55' W 122°22'0 0.0
2017-Jul-08 19:27N 37°55' W 122°22'0 0.0
2017-Jul-08 19:00N 37°55' W 122°22'0 0.0
2017-Jul-08 18:30N 37°55' W 122°22'0 0.0
2017-Jul-08 18:00N 37°55' W 122°22'0 0.0
2017-Jul-08 17:30N 37°55' W 122°22'0 0.0
2017-Jul-08 16:57N 37°55' W 122°22'0 0.0
2017-Jul-08 16:30N 37°55' W 122°22'0 0.0
2017-Jul-08 16:00N 37°55' W 122°22'0 0.0
2017-Jul-08 15:27N 37°55' W 122°22'0 0.0
2017-Jul-08 15:00N 37°55' W 122°22'0 0.0
2017-Jul-08 14:00N 37°55' W 122°22'0 0.0
2017-Jul-08 13:30N 37°55' W 122°22'0 0.0
2017-Jul-08 13:00N 37°55' W 122°22'0 0.0
2017-Jul-08 12:30N 37°55' W 122°22'0 0.0
2017-Jul-08 12:00N 37°55' W 122°22'0 0.0
2017-Jul-08 11:27N 37°55' W 122°22'0 0.0
2017-Jul-08 11:00N 37°55' W 122°22'0 0.0
2017-Jul-08 10:30N 37°55' W 122°22'0 0.0
2017-Jul-08 10:00N 37°55' W 122°22'0 0.0
2017-Jul-08 09:30N 37°55' W 122°22'0 0.0
2017-Jul-08 09:00N 37°55' W 122°22'0 0.0
2017-Jul-08 08:30N 37°55' W 122°22'0 0.0
2017-Jul-08 08:00N 37°55' W 122°22'0 0.0
2017-Jul-08 07:30N 37°55' W 122°22'0 0.0
2017-Jul-08 06:54N 37°55' W 122°22'0 0.0
2017-Jul-08 06:30N 37°55' W 122°22'0 0.0
2017-Jul-08 06:00N 37°55' W 122°22'0 0.0
2017-Jul-08 05:30N 37°55' W 122°22'0 0.0
2017-Jul-08 05:00N 37°55' W 122°22'0 0.0
2017-Jul-08 04:27N 37°55' W 122°22'0 0.0
2017-Jul-08 04:00N 37°55' W 122°22'0 0.0
2017-Jul-08 03:27N 37°55' W 122°22'0 0.0
2017-Jul-08 03:00N 37°55' W 122°22'0 0.0
2017-Jul-08 02:30N 37°55' W 122°22'0 0.0
2017-Jul-08 02:00N 37°55' W 122°22'0 0.0
2017-Jul-08 01:30N 37°55' W 122°22'0 0.0
2017-Jul-08 01:00N 37°55' W 122°22'0 0.0
2017-Jul-08 00:30N 37°55' W 122°22'0 0.0
2017-Jul-08 00:00N 37°55' W 122°22'0 0.0
2017-Jul-07 23:30N 37°55' W 122°22'0 0.0
2017-Jul-07 23:00N 37°55' W 122°22'0 0.0
2017-Jul-07 22:30N 37°55' W 122°22'0 0.0
2017-Jul-07 22:00N 37°55' W 122°22'0 0.0
2017-Jul-07 21:30N 37°55' W 122°22'0 0.0
2017-Jul-07 21:00N 37°55' W 122°22'0 0.0
2017-Jul-07 20:30N 37°55' W 122°22'0 0.0
2017-Jul-07 20:00N 37°55' W 122°22'0 0.0
2017-Jul-07 19:27N 37°55' W 122°22'0 0.0
2017-Jul-07 19:00N 37°55' W 122°22'0 0.0
2017-Jul-07 18:27N 37°55' W 122°22'0 0.0
2017-Jul-07 18:00N 37°55' W 122°22'0 0.0
2017-Jul-07 17:30N 37°55' W 122°22'0 0.0
2017-Jul-07 17:00N 37°55' W 122°22'0 0.0
2017-Jul-07 16:30N 37°55' W 122°22'0 0.0
2017-Jul-07 16:00N 37°55' W 122°22'0 0.0
2017-Jul-07 15:27N 37°55' W 122°22'0 0.0
2017-Jul-07 15:00N 37°55' W 122°22'0 0.0
2017-Jul-07 14:00N 37°55' W 122°22'0 0.0
2017-Jul-07 13:30N 37°55' W 122°22'0 0.0
2017-Jul-07 13:00N 37°55' W 122°22'0 0.2
2017-Jul-07 12:30N 37°55' W 122°22'1 1.5
2017-Jul-07 12:00N 37°54' W 122°22'3 5.2
2017-Jul-07 11:30N 37°55' W 122°25'3 6.2
2017-Jul-07 11:00N 37°52' W 122°25'612.8
2017-Jul-07 10:31N 37°46' W 122°22'4 7.4
2017-Jul-07 09:59N 37°43' W 122°20'0 0.1
2017-Jul-07 09:29N 37°43' W 122°20'0 0.1
2017-Jul-07 08:59N 37°43' W 122°20'0 0.1
2017-Jul-07 08:29N 37°43' W 122°20'0 0.0
2017-Jul-07 07:59N 37°43' W 122°20'0 0.2
2017-Jul-07 07:29N 37°43' W 122°20'0 0.2
2017-Jul-07 06:59N 37°42' W 122°20'0 0.1
2017-Jul-07 06:29N 37°42' W 122°20'0 0.0
2017-Jul-07 05:59N 37°42' W 122°20'0 0.0
2017-Jul-07 05:29N 37°42' W 122°20'0 0.1
2017-Jul-07 04:59N 37°42' W 122°20'0 0.1
2017-Jul-07 04:29N 37°42' W 122°20'0 0.1
2017-Jul-07 03:59N 37°42' W 122°20'0 0.0
2017-Jul-07 03:29N 37°42' W 122°20'0 0.0
2017-Jul-07 02:59N 37°42' W 122°20'0 0.1
2017-Jul-07 02:29N 37°42' W 122°20'0 0.0
2017-Jul-07 01:59N 37°42' W 122°20'0 0.0
2017-Jul-07 01:29N 37°42' W 122°20'0 0.1
2017-Jul-07 00:59N 37°42' W 122°20'0 0.2
2017-Jul-07 00:29N 37°43' W 122°20'0 0.0
2017-Jul-06 23:59N 37°43' W 122°20'0 0.1
2017-Jul-06 23:29N 37°43' W 122°20'0 0.0
2017-Jul-06 23:14N 37°43' W 122°20'0 0.0
2017-Jul-05 08:29N 37°43' W 122°20'0 0.0
2017-Jul-05 07:59N 37°43' W 122°20'0 0.0
2017-Jul-05 07:29N 37°43' W 122°20'0 0.1
2017-Jul-05 06:59N 37°43' W 122°20'0 0.1
2017-Jul-05 06:29N 37°43' W 122°20'0 0.1
2017-Jul-05 05:59N 37°42' W 122°20'0 0.2
2017-Jul-05 05:29N 37°42' W 122°20'0 0.1
2017-Jul-05 04:59N 37°42' W 122°20'0 0.1
2017-Jul-05 04:29N 37°42' W 122°20'0 0.0
2017-Jul-05 03:59N 37°42' W 122°20'0 0.0
2017-Jul-05 03:29N 37°42' W 122°20'0 0.0
2017-Jul-05 02:59N 37°42' W 122°20'0 0.0
2017-Jul-05 02:29N 37°42' W 122°20'0 0.0
2017-Jul-05 01:59N 37°42' W 122°20'0 0.0
2017-Jul-05 01:29N 37°42' W 122°20'0 0.1
2017-Jul-05 00:59N 37°42' W 122°20'0 0.0
2017-Jul-05 00:29N 37°42' W 122°20'0 0.0
2017-Jul-04 23:59N 37°42' W 122°20'0 0.1
2017-Jul-04 23:29N 37°42' W 122°19'0 0.0
2017-Jul-04 22:59N 37°42' W 122°19'0 0.1
2017-Jul-04 22:29N 37°42' W 122°20'0 0.1
2017-Jul-04 21:59N 37°43' W 122°20'0 0.1
2017-Jul-04 21:29N 37°43' W 122°20'0 0.0
2017-Jul-04 20:59N 37°43' W 122°20'0 0.1
2017-Jul-04 20:29N 37°43' W 122°20'0 0.2
2017-Jul-04 19:59N 37°43' W 122°20'0 0.3
2017-Jul-04 19:29N 37°42' W 122°20'0 0.2
2017-Jul-04 18:59N 37°42' W 122°20'0 0.0
2017-Jul-04 18:29N 37°42' W 122°20'0 0.0
2017-Jul-04 17:59N 37°42' W 122°20'0 0.0
2017-Jul-04 17:29N 37°42' W 122°20'0 0.0
2017-Jul-04 16:59N 37°42' W 122°20'0 0.1
2017-Jul-04 16:29N 37°42' W 122°20'0 0.1
2017-Jul-04 15:59N 37°42' W 122°20'0 0.0
2017-Jul-04 15:29N 37°42' W 122°20'0 0.0
2017-Jul-04 14:59N 37°42' W 122°20'0 0.0
2017-Jul-04 13:59N 37°42' W 122°20'0 0.1
2017-Jul-04 13:29N 37°42' W 122°20'0 0.0
2017-Jul-04 12:59N 37°42' W 122°20'0 0.0
2017-Jul-04 12:29N 37°42' W 122°20'0 0.1
2017-Jul-04 11:59N 37°42' W 122°20'0 0.2
2017-Jul-04 11:29N 37°43' W 122°20'0 0.1
2017-Jul-04 10:59N 37°43' W 122°20'0 0.1
2017-Jul-04 10:29N 37°43' W 122°20'0 0.0
2017-Jul-04 09:59N 37°43' W 122°20'0 0.0
2017-Jul-04 09:29N 37°43' W 122°20'0 0.0
2017-Jul-04 08:59N 37°43' W 122°20'0 0.0
2017-Jul-04 08:29N 37°43' W 122°20'0 0.0
2017-Jul-04 07:59N 37°43' W 122°20'0 0.0
2017-Jul-04 07:29N 37°43' W 122°20'0 0.0
2017-Jul-04 06:59N 37°43' W 122°20'0 0.0
2017-Jul-04 06:29N 37°43' W 122°20'0 0.1
2017-Jul-04 05:59N 37°43' W 122°20'0 0.2
2017-Jul-04 05:29N 37°43' W 122°20'0 0.2
2017-Jul-04 04:59N 37°42' W 122°20'0 0.1
2017-Jul-04 04:29N 37°42' W 122°20'0 0.1
2017-Jul-04 03:59N 37°42' W 122°20'0 0.0
2017-Jul-04 03:29N 37°42' W 122°20'0 0.1
2017-Jul-04 02:59N 37°42' W 122°20'0 0.1
2017-Jul-04 02:29N 37°42' W 122°20'0 0.0
2017-Jul-04 01:59N 37°42' W 122°20'0 0.1
2017-Jul-04 01:29N 37°42' W 122°20'0 0.1
2017-Jul-04 00:59N 37°42' W 122°20'0 0.1
2017-Jul-04 00:29N 37°42' W 122°20'0 0.0
2017-Jul-03 23:59N 37°42' W 122°20'0 0.0
2017-Jul-03 23:29N 37°42' W 122°20'0 0.0
2017-Jul-03 22:59N 37°42' W 122°20'0 0.1
2017-Jul-03 22:29N 37°42' W 122°20'0 0.1
2017-Jul-03 21:59N 37°43' W 122°20'0 0.2
2017-Jul-03 21:29N 37°43' W 122°20'0 0.1
2017-Jul-03 20:59N 37°43' W 122°20'0 0.0
2017-Jul-03 20:29N 37°43' W 122°20'0 0.0
2017-Jul-03 19:59N 37°43' W 122°20'0 0.0
2017-Jul-03 19:29N 37°43' W 122°20'0 0.0
2017-Jul-03 18:59N 37°43' W 122°20'0 0.0
2017-Jul-03 18:29N 37°43' W 122°20'0 0.2
2017-Jul-03 17:59N 37°42' W 122°20'0 0.2
2017-Jul-03 17:26N 37°42' W 122°20'0 0.1
2017-Jul-03 16:59N 37°42' W 122°20'0 0.1
2017-Jul-03 16:29N 37°42' W 122°20'0 0.0
2017-Jul-03 15:59N 37°42' W 122°20'0 0.1
2017-Jul-03 15:29N 37°42' W 122°20'0 0.0
2017-Jul-03 14:59N 37°42' W 122°20'0 0.0
2017-Jul-03 13:59N 37°42' W 122°20'0 0.0
2017-Jul-03 13:29N 37°42' W 122°20'0 0.0
2017-Jul-03 12:59N 37°42' W 122°20'0 0.0
2017-Jul-03 12:29N 37°42' W 122°20'0 0.1
2017-Jul-03 11:59N 37°42' W 122°20'0 0.1
2017-Jul-03 11:29N 37°42' W 122°20'0 0.2
2017-Jul-03 10:59N 37°43' W 122°20'0 0.1
2017-Jul-03 10:29N 37°43' W 122°20'0 0.0
2017-Jul-03 09:59N 37°43' W 122°20'0 0.1
2017-Jul-03 09:29N 37°43' W 122°20'0 0.0
2017-Jul-03 08:59N 37°43' W 122°20'0 0.0
2017-Jul-03 08:29N 37°43' W 122°20'0 0.0
2017-Jul-03 07:59N 37°43' W 122°20'0 0.0
2017-Jul-03 07:29N 37°43' W 122°20'0 0.0
2017-Jul-03 06:59N 37°43' W 122°20'0 0.0
2017-Jul-03 06:29N 37°43' W 122°20'0 0.0
2017-Jul-03 05:59N 37°43' W 122°20'0 0.1
2017-Jul-03 05:29N 37°43' W 122°20'0 0.2
2017-Jul-03 04:59N 37°43' W 122°20'0 0.2
2017-Jul-03 04:29N 37°42' W 122°20'0 0.1
2017-Jul-03 03:59N 37°42' W 122°20'0 0.0
2017-Jul-03 03:29N 37°42' W 122°20'0 0.0
2017-Jul-03 02:59N 37°42' W 122°20'0 0.0
2017-Jul-03 02:29N 37°42' W 122°20'0 0.0
2017-Jul-03 01:59N 37°42' W 122°20'0 0.0
2017-Jul-03 01:29N 37°42' W 122°20'0 0.0
2017-Jul-03 00:59N 37°42' W 122°20'0 0.0
2017-Jul-03 00:29N 37°42' W 122°20'0 0.0
2017-Jul-02 23:59N 37°42' W 122°20'0 0.0
2017-Jul-02 23:29N 37°42' W 122°20'0 0.0
2017-Jul-02 22:59N 37°42' W 122°20'0 0.1
2017-Jul-02 22:29N 37°42' W 122°20'0 0.0
2017-Jul-02 21:59N 37°42' W 122°20'0 0.1
2017-Jul-02 20:59N 37°42' W 122°20'0 0.2
2017-Jul-02 20:29N 37°43' W 122°20'0 0.2
2017-Jul-02 19:59N 37°43' W 122°20'0 0.1
2017-Jul-02 19:29N 37°43' W 122°20'0 0.1
2017-Jul-02 18:59N 37°43' W 122°20'0 0.0
2017-Jul-02 18:29N 37°43' W 122°20'0 0.0
2017-Jul-02 17:59N 37°43' W 122°20'0 0.0
2017-Jul-02 17:29N 37°43' W 122°20'0 0.0
2017-Jul-02 16:59N 37°43' W 122°20'0 0.2
2017-Jul-02 16:29N 37°42' W 122°20'0 0.2
2017-Jul-02 15:59N 37°42' W 122°20'0 0.1
2017-Jul-02 15:29N 37°42' W 122°20'0 0.0
2017-Jul-02 14:59N 37°42' W 122°20'  
Track history (hours):
 
Tides and Currents Weather Stations Pressure Air Temp Water Temp Dewpoint Dewpoint Depression Visibility Wind Speed Wind Dir Waves Ship Positions

Nippon Maru

Last reported at 2017-Jul-12 14:33 UTC. Time now 2017-Aug-17 21:27 UTC.
Position N 37°42' W 127°00'.
Warning: this ship's position is 36 days out of date.

Length 190 m; draft 11.9 m.

Type: Cargo ship. MMSI: 353814000.

Date/timePositionNaut miles runAvg speedWind from/ knotsBaromVisibWave heightAir tempDewpointWater temp
2017-Jul-12 14:33N 37°42' W 127°00'1010.7
2017-Jul-12 13:34N 37°42' W 126°47'310.6
2017-Jul-12 13:15N 37°42' W 126°43'410.7
2017-Jul-12 12:54N 37°42' W 126°38'410.5
2017-Jul-12 12:31N 37°42' W 126°33'610.7
2017-Jul-12 11:56N 37°42' W 126°25'3110.5
2017-Jul-12 09:00N 37°43' W 125°46'17 9.9
2017-Jul-12 07:16N 37°42' W 125°24'310.2
2017-Jul-12 06:57N 37°42' W 125°20'8 9.9
2017-Jul-12 06:10N 37°42' W 125°10'210.2
2017-Jul-12 06:00N 37°42' W 125°08'510.2
2017-Jul-12 05:30N 37°42' W 125°02'510.1
2017-Jul-12 05:00N 37°41' W 124°56'510.0
2017-Jul-12 04:30N 37°40' W 124°49'510.1
2017-Jul-12 04:01N 37°40' W 124°43'510.0
2017-Jul-12 03:30N 37°39' W 124°37'1010.3
2017-Jul-12 02:30N 37°38' W 124°24'810.4
2017-Jul-12 01:44N 37°37' W 124°14'310.5
2017-Jul-12 01:24N 37°36' W 124°09'410.4
2017-Jul-12 01:00N 37°36' W 124°04'510.5
2017-Jul-12 00:31N 37°35' W 123°58'510.3
2017-Jul-12 00:00N 37°35' W 123°51'510.4
2017-Jul-11 23:31N 37°34' W 123°45'510.7
2017-Jul-11 23:01N 37°33' W 123°38'510.6
2017-Jul-11 22:31N 37°33' W 123°32'510.8
2017-Jul-11 22:00N 37°32' W 123°25'510.9
2017-Jul-11 21:30N 37°31' W 123°18'5 9.8
2017-Jul-11 21:01N 37°30' W 123°12'510.3
2017-Jul-11 20:31N 37°33' W 123°07'510.7
2017-Jul-11 20:01N 37°36' W 123°01'611.0
2017-Jul-11 19:31N 37°39' W 122°55'510.9
2017-Jul-11 19:01N 37°42' W 122°50'510.8
2017-Jul-11 18:31N 37°44' W 122°43'4 8.2
2017-Jul-11 18:01N 37°46' W 122°39'510.3
2017-Jul-11 17:31N 37°48' W 122°33'510.5
2017-Jul-11 17:01N 37°50' W 122°27'4 8.5
2017-Jul-11 16:31N 37°48' W 122°23'2 4.9
2017-Jul-11 16:01N 37°46' W 122°21'0 0.3
2017-Jul-11 15:30N 37°46' W 122°21'0 0.0
2017-Jul-11 15:00N 37°46' W 122°21'0 0.0
2017-Jul-11 14:30N 37°46' W 122°21'0 0.0
2017-Jul-11 14:00N 37°46' W 122°21'0 0.0
2017-Jul-11 13:30N 37°46' W 122°21'0 0.0
2017-Jul-11 13:00N 37°46' W 122°21'0 0.0
2017-Jul-11 12:30N 37°46' W 122°21'0 0.0
2017-Jul-11 12:00N 37°46' W 122°21'0 0.0
2017-Jul-11 11:30N 37°46' W 122°21'0 0.0
2017-Jul-11 11:00N 37°46' W 122°21'0 0.0
2017-Jul-11 10:30N 37°46' W 122°21'0 0.1
2017-Jul-11 10:00N 37°46' W 122°21'0 0.9
2017-Jul-11 09:31N 37°46' W 122°21'3 6.4
2017-Jul-11 09:01N 37°49' W 122°23'4 8.8
2017-Jul-11 08:30N 37°53' W 122°25'2 3.4
2017-Jul-11 08:01N 37°55' W 122°24'2 3.8
2017-Jul-11 07:30N 37°55' W 122°22'0 0.9
2017-Jul-11 07:00N 37°55' W 122°22'0 0.0
2017-Jul-11 06:30N 37°55' W 122°22'0 0.0
2017-Jul-11 06:00N 37°55' W 122°22'0 0.0
2017-Jul-11 05:30N 37°55' W 122°22'0 0.0
2017-Jul-11 04:57N 37°55' W 122°22'0 0.0
2017-Jul-11 04:27N 37°55' W 122°22'0 0.0
2017-Jul-11 04:00N 37°55' W 122°22'0 0.0
2017-Jul-11 03:30N 37°55' W 122°22'0 0.0
2017-Jul-11 03:00N 37°55' W 122°22'0 0.0
2017-Jul-11 02:30N 37°55' W 122°22'0 0.0
2017-Jul-11 02:00N 37°55' W 122°22'0 0.0
2017-Jul-11 01:30N 37°55' W 122°22'0 0.0
2017-Jul-11 01:00N 37°55' W 122°22'0 0.0
2017-Jul-11 00:30N 37°55' W 122°22'0 0.0
2017-Jul-11 00:00N 37°55' W 122°22'0 0.0
2017-Jul-10 23:30N 37°55' W 122°22'0 0.0
2017-Jul-10 22:57N 37°55' W 122°22'0 0.0
2017-Jul-10 22:30N 37°55' W 122°22'0 0.0
2017-Jul-10 22:00N 37°55' W 122°22'0 0.0
2017-Jul-10 21:27N 37°55' W 122°22'0 0.0
2017-Jul-10 21:00N 37°55' W 122°22'0 0.0
2017-Jul-10 20:30N 37°55' W 122°22'0 0.0
2017-Jul-10 20:00N 37°55' W 122°22'0 0.0
2017-Jul-10 19:30N 37°55' W 122°22'0 0.0
2017-Jul-10 19:00N 37°55' W 122°22'0 0.0
2017-Jul-10 18:30N 37°55' W 122°22'0 0.0
2017-Jul-10 18:00N 37°55' W 122°22'0 0.0
2017-Jul-10 17:30N 37°55' W 122°22'0 0.0
2017-Jul-10 17:00N 37°55' W 122°22'0 0.0
2017-Jul-10 16:30N 37°55' W 122°22'0 0.0
2017-Jul-10 16:00N 37°55' W 122°22'0 0.0
2017-Jul-10 15:30N 37°55' W 122°22'0 0.0
2017-Jul-10 15:00N 37°55' W 122°22'0 0.0
2017-Jul-10 14:30N 37°55' W 122°22'0 0.0
2017-Jul-10 13:57N 37°55' W 122°22'0 0.0
2017-Jul-10 13:30N 37°55' W 122°22'0 0.0
2017-Jul-10 12:57N 37°55' W 122°22'0 0.0
2017-Jul-10 12:30N 37°55' W 122°22'0 0.0
2017-Jul-10 12:00N 37°55' W 122°22'0 0.0
2017-Jul-10 11:30N 37°55' W 122°22'0 0.0
2017-Jul-10 11:00N 37°55' W 122°22'0 0.0
2017-Jul-10 10:30N 37°55' W 122°22'0 0.0
2017-Jul-10 10:00N 37°55' W 122°22'0 0.0
2017-Jul-10 09:30N 37°55' W 122°22'0 0.0
2017-Jul-10 09:00N 37°55' W 122°22'0 0.0
2017-Jul-10 08:30N 37°55' W 122°22'0 0.0
2017-Jul-10 08:00N 37°55' W 122°22'0 0.0
2017-Jul-10 07:27N 37°55' W 122°22'0 0.0
2017-Jul-10 06:57N 37°55' W 122°22'0 0.0
2017-Jul-10 06:27N 37°55' W 122°22'0 0.0
2017-Jul-10 05:57N 37°55' W 122°22'0 0.0
2017-Jul-10 05:30N 37°55' W 122°22'0 0.0
2017-Jul-10 05:00N 37°55' W 122°22'0 0.0
2017-Jul-10 04:30N 37°55' W 122°22'0 0.0
2017-Jul-10 04:00N 37°55' W 122°22'0 0.0
2017-Jul-10 03:30N 37°55' W 122°22'0 0.0
2017-Jul-10 02:57N 37°55' W 122°22'0 0.0
2017-Jul-10 02:30N 37°55' W 122°22'0 0.0
2017-Jul-10 02:00N 37°55' W 122°22'0 0.0
2017-Jul-10 01:30N 37°55' W 122°22'0 0.0
2017-Jul-10 01:00N 37°55' W 122°22'0 0.0
2017-Jul-10 00:30N 37°55' W 122°22'0 0.0
2017-Jul-10 00:00N 37°55' W 122°22'0 0.0
2017-Jul-09 23:30N 37°55' W 122°22'0 0.0
2017-Jul-09 23:00N 37°55' W 122°22'0 0.0
2017-Jul-09 22:30N 37°55' W 122°22'0 0.0
2017-Jul-09 22:00N 37°55' W 122°22'0 0.0
2017-Jul-09 21:27N 37°55' W 122°22'0 0.0
2017-Jul-09 21:00N 37°55' W 122°22'0 0.0
2017-Jul-09 20:27N 37°55' W 122°22'0 0.0
2017-Jul-09 20:00N 37°55' W 122°22'0 0.0
2017-Jul-09 19:30N 37°55' W 122°22'0 0.0
2017-Jul-09 19:00N 37°55' W 122°22'0 0.0
2017-Jul-09 18:27N 37°55' W 122°22'0 0.0
2017-Jul-09 18:00N 37°55' W 122°22'0 0.0
2017-Jul-09 17:30N 37°55' W 122°22'0 0.0
2017-Jul-09 17:00N 37°55' W 122°22'0 0.0
2017-Jul-09 16:30N 37°55' W 122°22'0 0.0
2017-Jul-09 16:00N 37°55' W 122°22'0 0.0
2017-Jul-09 15:30N 37°55' W 122°22'0 0.0
2017-Jul-09 15:00N 37°55' W 122°22'0 0.0
2017-Jul-09 14:27N 37°55' W 122°22'0 0.0
2017-Jul-09 14:00N 37°55' W 122°22'0 0.0
2017-Jul-09 13:30N 37°55' W 122°22'0 0.0
2017-Jul-09 12:57N 37°55' W 122°22'0 0.0
2017-Jul-09 12:30N 37°55' W 122°22'0 0.0
2017-Jul-09 12:00N 37°55' W 122°22'0 0.0
2017-Jul-09 11:30N 37°55' W 122°22'0 0.0
2017-Jul-09 11:00N 37°55' W 122°22'0 0.0
2017-Jul-09 10:30N 37°55' W 122°22'0 0.0
2017-Jul-09 10:00N 37°55' W 122°22'0 0.0
2017-Jul-09 09:30N 37°55' W 122°22'0 0.0
2017-Jul-09 09:00N 37°55' W 122°22'0 0.0
2017-Jul-09 08:30N 37°55' W 122°22'0 0.0
2017-Jul-09 08:00N 37°55' W 122°22'0 0.0
2017-Jul-09 07:30N 37°55' W 122°22'0 0.0
2017-Jul-09 07:00N 37°55' W 122°22'0 0.0
2017-Jul-09 06:30N 37°55' W 122°22'0 0.0
2017-Jul-09 06:00N 37°55' W 122°22'0 0.0
2017-Jul-09 05:27N 37°55' W 122°22'0 0.0
2017-Jul-09 05:00N 37°55' W 122°22'0 0.0
2017-Jul-09 04:30N 37°55' W 122°22'0 0.0
2017-Jul-09 04:00N 37°55' W 122°22'0 0.0
2017-Jul-09 03:30N 37°55' W 122°22'0 0.0
2017-Jul-09 03:00N 37°55' W 122°22'0 0.0
2017-Jul-09 02:30N 37°55' W 122°22'0 0.0
2017-Jul-09 02:00N 37°55' W 122°22'0 0.0
2017-Jul-09 01:30N 37°55' W 122°22'0 0.0
2017-Jul-09 01:00N 37°55' W 122°22'0 0.0
2017-Jul-09 00:30N 37°55' W 122°22'0 0.0
2017-Jul-09 00:00N 37°55' W 122°22'0 0.0
2017-Jul-08 23:30N 37°55' W 122°22'0 0.0
2017-Jul-08 23:00N 37°55' W 122°22'0 0.0
2017-Jul-08 22:30N 37°55' W 122°22'0 0.0
2017-Jul-08 22:00N 37°55' W 122°22'0 0.0
2017-Jul-08 21:30N 37°55' W 122°22'0 0.0
2017-Jul-08 21:00N 37°55' W 122°22'0 0.0
2017-Jul-08 20:30N 37°55' W 122°22'0 0.0
2017-Jul-08 20:00N 37°55' W 122°22'0 0.0
2017-Jul-08 19:27N 37°55' W 122°22'0 0.0
2017-Jul-08 19:00N 37°55' W 122°22'0 0.0
2017-Jul-08 18:30N 37°55' W 122°22'0 0.0
2017-Jul-08 18:00N 37°55' W 122°22'0 0.0
2017-Jul-08 17:30N 37°55' W 122°22'0 0.0
2017-Jul-08 16:57N 37°55' W 122°22'0 0.0
2017-Jul-08 16:30N 37°55' W 122°22'0 0.0
2017-Jul-08 16:00N 37°55' W 122°22'0 0.0
2017-Jul-08 15:27N 37°55' W 122°22'0 0.0
2017-Jul-08 15:00N 37°55' W 122°22'0 0.0
2017-Jul-08 14:00N 37°55' W 122°22'0 0.0
2017-Jul-08 13:30N 37°55' W 122°22'0 0.0
2017-Jul-08 13:00N 37°55' W 122°22'0 0.0
2017-Jul-08 12:30N 37°55' W 122°22'0 0.0
2017-Jul-08 12:00N 37°55' W 122°22'0 0.0
2017-Jul-08 11:27N 37°55' W 122°22'0 0.0
2017-Jul-08 11:00N 37°55' W 122°22'0 0.0
2017-Jul-08 10:30N 37°55' W 122°22'0 0.0
2017-Jul-08 10:00N 37°55' W 122°22'0 0.0
2017-Jul-08 09:30N 37°55' W 122°22'0 0.0
2017-Jul-08 09:00N 37°55' W 122°22'0 0.0
2017-Jul-08 08:30N 37°55' W 122°22'0 0.0
2017-Jul-08 08:00N 37°55' W 122°22'0 0.0
2017-Jul-08 07:30N 37°55' W 122°22'0 0.0
2017-Jul-08 06:54N 37°55' W 122°22'0 0.0
2017-Jul-08 06:30N 37°55' W 122°22'0 0.0
2017-Jul-08 06:00N 37°55' W 122°22'0 0.0
2017-Jul-08 05:30N 37°55' W 122°22'0 0.0
2017-Jul-08 05:00N 37°55' W 122°22'0 0.0
2017-Jul-08 04:27N 37°55' W 122°22'0 0.0
2017-Jul-08 04:00N 37°55' W 122°22'0 0.0
2017-Jul-08 03:27N 37°55' W 122°22'0 0.0
2017-Jul-08 03:00N 37°55' W 122°22'0 0.0
2017-Jul-08 02:30N 37°55' W 122°22'0 0.0
2017-Jul-08 02:00N 37°55' W 122°22'0 0.0
2017-Jul-08 01:30N 37°55' W 122°22'0 0.0
2017-Jul-08 01:00N 37°55' W 122°22'0 0.0
2017-Jul-08 00:30N 37°55' W 122°22'0 0.0
2017-Jul-08 00:00N 37°55' W 122°22'0 0.0
2017-Jul-07 23:30N 37°55' W 122°22'0 0.0
2017-Jul-07 23:00N 37°55' W 122°22'0 0.0
2017-Jul-07 22:30N 37°55' W 122°22'0 0.0
2017-Jul-07 22:00N 37°55' W 122°22'0 0.0
2017-Jul-07 21:30N 37°55' W 122°22'0 0.0
2017-Jul-07 21:00N 37°55' W 122°22'0 0.0
2017-Jul-07 20:30N 37°55' W 122°22'0 0.0
2017-Jul-07 20:00N 37°55' W 122°22'0 0.0
2017-Jul-07 19:27N 37°55' W 122°22'0 0.0
2017-Jul-07 19:00N 37°55' W 122°22'0 0.0
2017-Jul-07 18:27N 37°55' W 122°22'0 0.0
2017-Jul-07 18:00N 37°55' W 122°22'0 0.0
2017-Jul-07 17:30N 37°55' W 122°22'0 0.0
2017-Jul-07 17:00N 37°55' W 122°22'0 0.0
2017-Jul-07 16:30N 37°55' W 122°22'0 0.0
2017-Jul-07 16:00N 37°55' W 122°22'0 0.0
2017-Jul-07 15:27N 37°55' W 122°22'0 0.0
2017-Jul-07 15:00N 37°55' W 122°22'0 0.0
2017-Jul-07 14:00N 37°55' W 122°22'0 0.0
2017-Jul-07 13:30N 37°55' W 122°22'0 0.0
2017-Jul-07 13:00N 37°55' W 122°22'0 0.2
2017-Jul-07 12:30N 37°55' W 122°22'1 1.5
2017-Jul-07 12:00N 37°54' W 122°22'3 5.2
2017-Jul-07 11:30N 37°55' W 122°25'3 6.2
2017-Jul-07 11:00N 37°52' W 122°25'612.8
2017-Jul-07 10:31N 37°46' W 122°22'4 7.4
2017-Jul-07 09:59N 37°43' W 122°20'0 0.1
2017-Jul-07 09:29N 37°43' W 122°20'0 0.1
2017-Jul-07 08:59N 37°43' W 122°20'0 0.1
2017-Jul-07 08:29N 37°43' W 122°20'0 0.0
2017-Jul-07 07:59N 37°43' W 122°20'0 0.2
2017-Jul-07 07:29N 37°43' W 122°20'0 0.2
2017-Jul-07 06:59N 37°42' W 122°20'0 0.1
2017-Jul-07 06:29N 37°42' W 122°20'0 0.0
2017-Jul-07 05:59N 37°42' W 122°20'0 0.0
2017-Jul-07 05:29N 37°42' W 122°20'0 0.1
2017-Jul-07 04:59N 37°42' W 122°20'0 0.1
2017-Jul-07 04:29N 37°42' W 122°20'0 0.1
2017-Jul-07 03:59N 37°42' W 122°20'0 0.0
2017-Jul-07 03:29N 37°42' W 122°20'0 0.0
2017-Jul-07 02:59N 37°42' W 122°20'0 0.1
2017-Jul-07 02:29N 37°42' W 122°20'0 0.0
2017-Jul-07 01:59N 37°42' W 122°20'0 0.0
2017-Jul-07 01:29N 37°42' W 122°20'0 0.1
2017-Jul-07 00:59N 37°42' W 122°20'0 0.2
2017-Jul-07 00:29N 37°43' W 122°20'0 0.0
2017-Jul-06 23:59N 37°43' W 122°20'0 0.1
2017-Jul-06 23:29N 37°43' W 122°20'0 0.0
2017-Jul-06 23:14N 37°43' W 122°20'0 0.0
2017-Jul-05 08:29N 37°43' W 122°20'0 0.0
2017-Jul-05 07:59N 37°43' W 122°20'0 0.0
2017-Jul-05 07:29N 37°43' W 122°20'0 0.1
2017-Jul-05 06:59N 37°43' W 122°20'0 0.1
2017-Jul-05 06:29N 37°43' W 122°20'0 0.1
2017-Jul-05 05:59N 37°42' W 122°20'0 0.2
2017-Jul-05 05:29N 37°42' W 122°20'0 0.1
2017-Jul-05 04:59N 37°42' W 122°20'0 0.1
2017-Jul-05 04:29N 37°42' W 122°20'0 0.0
2017-Jul-05 03:59N 37°42' W 122°20'0 0.0
2017-Jul-05 03:29N 37°42' W 122°20'0 0.0
2017-Jul-05 02:59N 37°42' W 122°20'0 0.0
2017-Jul-05 02:29N 37°42' W 122°20'0 0.0
2017-Jul-05 01:59N 37°42' W 122°20'0 0.0
2017-Jul-05 01:29N 37°42' W 122°20'0 0.1
2017-Jul-05 00:59N 37°42' W 122°20'0 0.0
2017-Jul-05 00:29N 37°42' W 122°20'0 0.0
2017-Jul-04 23:59N 37°42' W 122°20'0 0.1
2017-Jul-04 23:29N 37°42' W 122°19'0 0.0
2017-Jul-04 22:59N 37°42' W 122°19'0 0.1
2017-Jul-04 22:29N 37°42' W 122°20'0 0.1
2017-Jul-04 21:59N 37°43' W 122°20'0 0.1
2017-Jul-04 21:29N 37°43' W 122°20'0 0.0
2017-Jul-04 20:59N 37°43' W 122°20'0 0.1
2017-Jul-04 20:29N 37°43' W 122°20'0 0.2
2017-Jul-04 19:59N 37°43' W 122°20'0 0.3
2017-Jul-04 19:29N 37°42' W 122°20'0 0.2
2017-Jul-04 18:59N 37°42' W 122°20'0 0.0
2017-Jul-04 18:29N 37°42' W 122°20'0 0.0
2017-Jul-04 17:59N 37°42' W 122°20'0 0.0
2017-Jul-04 17:29N 37°42' W 122°20'0 0.0
2017-Jul-04 16:59N 37°42' W 122°20'0 0.1
2017-Jul-04 16:29N 37°42' W 122°20'0 0.1
2017-Jul-04 15:59N 37°42' W 122°20'0 0.0
2017-Jul-04 15:29N 37°42' W 122°20'0 0.0
2017-Jul-04 14:59N 37°42' W 122°20'0 0.0
2017-Jul-04 13:59N 37°42' W 122°20'0 0.1
2017-Jul-04 13:29N 37°42' W 122°20'0 0.0
2017-Jul-04 12:59N 37°42' W 122°20'0 0.0
2017-Jul-04 12:29N 37°42' W 122°20'0 0.1
2017-Jul-04 11:59N 37°42' W 122°20'0 0.2
2017-Jul-04 11:29N 37°43' W 122°20'0 0.1
2017-Jul-04 10:59N 37°43' W 122°20'0 0.1
2017-Jul-04 10:29N 37°43' W 122°20'0 0.0
2017-Jul-04 09:59N 37°43' W 122°20'0 0.0
2017-Jul-04 09:29N 37°43' W 122°20'0 0.0
2017-Jul-04 08:59N 37°43' W 122°20'0 0.0
2017-Jul-04 08:29N 37°43' W 122°20'0 0.0
2017-Jul-04 07:59N 37°43' W 122°20'0 0.0
2017-Jul-04 07:29N 37°43' W 122°20'0 0.0
2017-Jul-04 06:59N 37°43' W 122°20'0 0.0
2017-Jul-04 06:29N 37°43' W 122°20'0 0.1
2017-Jul-04 05:59N 37°43' W 122°20'0 0.2
2017-Jul-04 05:29N 37°43' W 122°20'0 0.2
2017-Jul-04 04:59N 37°42' W 122°20'0 0.1
2017-Jul-04 04:29N 37°42' W 122°20'0 0.1
2017-Jul-04 03:59N 37°42' W 122°20'0 0.0
2017-Jul-04 03:29N 37°42' W 122°20'0 0.1
2017-Jul-04 02:59N 37°42' W 122°20'0 0.1
2017-Jul-04 02:29N 37°42' W 122°20'0 0.0
2017-Jul-04 01:59N 37°42' W 122°20'0 0.1
2017-Jul-04 01:29N 37°42' W 122°20'0 0.1
2017-Jul-04 00:59N 37°42' W 122°20'0 0.1
2017-Jul-04 00:29N 37°42' W 122°20'0 0.0
2017-Jul-03 23:59N 37°42' W 122°20'0 0.0
2017-Jul-03 23:29N 37°42' W 122°20'0 0.0
2017-Jul-03 22:59N 37°42' W 122°20'0 0.1
2017-Jul-03 22:29N 37°42' W 122°20'0 0.1
2017-Jul-03 21:59N 37°43' W 122°20'0 0.2
2017-Jul-03 21:29N 37°43' W 122°20'0 0.1
2017-Jul-03 20:59N 37°43' W 122°20'0 0.0
2017-Jul-03 20:29N 37°43' W 122°20'0 0.0
2017-Jul-03 19:59N 37°43' W 122°20'0 0.0
2017-Jul-03 19:29N 37°43' W 122°20'0 0.0
2017-Jul-03 18:59N 37°43' W 122°20'0 0.0
2017-Jul-03 18:29N 37°43' W 122°20'0 0.2
2017-Jul-03 17:59N 37°42' W 122°20'0 0.2
2017-Jul-03 17:26N 37°42' W 122°20'0 0.1
2017-Jul-03 16:59N 37°42' W 122°20'0 0.1
2017-Jul-03 16:29N 37°42' W 122°20'0 0.0
2017-Jul-03 15:59N 37°42' W 122°20'0 0.1
2017-Jul-03 15:29N 37°42' W 122°20'0 0.0
2017-Jul-03 14:59N 37°42' W 122°20'0 0.0
2017-Jul-03 13:59N 37°42' W 122°20'0 0.0
2017-Jul-03 13:29N 37°42' W 122°20'0 0.0
2017-Jul-03 12:59N 37°42' W 122°20'0 0.0
2017-Jul-03 12:29N 37°42' W 122°20'0 0.1
2017-Jul-03 11:59N 37°42' W 122°20'0 0.1
2017-Jul-03 11:29N 37°42' W 122°20'0 0.2
2017-Jul-03 10:59N 37°43' W 122°20'0 0.1
2017-Jul-03 10:29N 37°43' W 122°20'0 0.0
2017-Jul-03 09:59N 37°43' W 122°20'0 0.1
2017-Jul-03 09:29N 37°43' W 122°20'0 0.0
2017-Jul-03 08:59N 37°43' W 122°20'0 0.0
2017-Jul-03 08:29N 37°43' W 122°20'0 0.0
2017-Jul-03 07:59N 37°43' W 122°20'0 0.0
2017-Jul-03 07:29N 37°43' W 122°20'0 0.0
2017-Jul-03 06:59N 37°43' W 122°20'0 0.0
2017-Jul-03 06:29N 37°43' W 122°20'0 0.0
2017-Jul-03 05:59N 37°43' W 122°20'0 0.1
2017-Jul-03 05:29N 37°43' W 122°20'0 0.2
2017-Jul-03 04:59N 37°43' W 122°20'0 0.2
2017-Jul-03 04:29N 37°42' W 122°20'0 0.1
2017-Jul-03 03:59N 37°42' W 122°20'0 0.0
2017-Jul-03 03:29N 37°42' W 122°20'0 0.0
2017-Jul-03 02:59N 37°42' W 122°20'0 0.0
2017-Jul-03 02:29N 37°42' W 122°20'0 0.0
2017-Jul-03 01:59N 37°42' W 122°20'0 0.0
2017-Jul-03 01:29N 37°42' W 122°20'0 0.0
2017-Jul-03 00:59N 37°42' W 122°20'0 0.0
2017-Jul-03 00:29N 37°42' W 122°20'0 0.0
2017-Jul-02 23:59N 37°42' W 122°20'0 0.0
2017-Jul-02 23:29N 37°42' W 122°20'0 0.0
2017-Jul-02 22:59N 37°42' W 122°20'0 0.1
2017-Jul-02 22:29N 37°42' W 122°20'0 0.0
2017-Jul-02 21:59N 37°42' W 122°20'0 0.1
2017-Jul-02 20:59N 37°42' W 122°20'0 0.2
2017-Jul-02 20:29N 37°43' W 122°20'0 0.2
2017-Jul-02 19:59N 37°43' W 122°20'0 0.1
2017-Jul-02 19:29N 37°43' W 122°20'0 0.1
2017-Jul-02 18:59N 37°43' W 122°20'0 0.0
2017-Jul-02 18:29N 37°43' W 122°20'0 0.0
2017-Jul-02 17:59N 37°43' W 122°20'0 0.0
2017-Jul-02 17:29N 37°43' W 122°20'0 0.0
2017-Jul-02 16:59N 37°43' W 122°20'0 0.2
2017-Jul-02 16:29N 37°42' W 122°20'0 0.2
2017-Jul-02 15:59N 37°42' W 122°20'0 0.1
2017-Jul-02 15:29N 37°42' W 122°20'0 0.0
2017-Jul-02 14:59N 37°42' W 122°20'  

Dump ship's entire track history